createdAt,value
2018-06-27T03:37:40.838Z,95.1
2018-06-27T03:42:02.022Z,95.7
2018-06-27T03:43:55.843Z,96.3
2018-06-27T03:44:16.982Z,96.5
2018-06-27T03:45:19.755Z,95.6
2018-06-27T03:45:40.859Z,95.9
2018-06-27T05:49:52.263Z,95
2018-06-27T05:50:14.754Z,94.9
2018-06-27T05:50:35.393Z,94.7
2018-06-27T05:51:37.347Z,95.3
2018-06-27T05:51:59.417Z,94.9
2018-06-27T05:52:20.803Z,95.4
2018-06-27T05:53:12.702Z,95.3
2018-06-27T05:53:34.684Z,95.3
2018-06-27T05:54:53.862Z,94.8
2018-06-27T05:55:27.446Z,95.4
2018-06-27T05:56:05.286Z,95.2
2018-06-27T05:56:47.899Z,94.5
2018-06-27T05:57:12.840Z,94.1
2018-06-27T05:57:33.320Z,94.5
2018-06-27T05:57:53.834Z,94.3
2018-06-27T05:58:14.483Z,94.3
2018-06-27T05:58:35.933Z,93.6
2018-06-27T05:58:56.641Z,93.5
2018-06-27T05:59:17.444Z,93.5
2018-06-27T05:59:37.883Z,93.4
2018-06-27T05:59:59.112Z,93.5
2018-06-27T06:00:20.120Z,93.7
2018-06-27T06:00:40.951Z,93.5
2018-06-27T06:01:01.778Z,93.3
2018-06-27T06:01:22.496Z,93.4
2018-06-27T06:01:43.157Z,93.6
2018-06-27T06:02:03.816Z,93.5
2018-06-27T06:02:24.405Z,93.7
2018-06-27T06:02:44.812Z,93.3
2018-06-27T06:03:05.385Z,93.5
2018-06-27T06:03:25.855Z,93.8
2018-06-27T06:03:46.422Z,93.7
2018-06-27T06:04:07.493Z,93.8
2018-06-27T06:04:28.424Z,93.3
2018-06-27T06:04:49.310Z,93.5
2018-06-27T06:05:09.924Z,93.2
2018-06-27T06:05:31.026Z,93.1
2018-06-27T06:05:51.607Z,92.7
2018-06-27T06:06:12.530Z,92.6
2018-06-27T06:06:33.276Z,91.7
2018-06-27T06:06:53.850Z,92
2018-06-27T06:07:14.342Z,92.1
2018-06-27T06:07:35.255Z,92.6
2018-06-27T06:07:56.256Z,92.9
2018-06-27T06:08:17.182Z,91.9
2018-06-27T06:08:38.008Z,92.7
2018-06-27T06:08:59.023Z,92.5
2018-06-27T06:09:19.987Z,92.8
2018-06-27T06:09:40.619Z,92.7
2018-06-27T06:10:01.477Z,92.9
2018-06-27T06:10:22.157Z,92.8
2018-06-27T06:10:43.060Z,92.5
2018-06-27T06:11:03.944Z,92.2
2018-06-27T06:11:25.355Z,91.8
2018-06-27T06:11:46.423Z,91.5
2018-06-27T06:12:07.190Z,91.8
2018-06-27T06:12:27.984Z,91.8
2018-06-27T06:12:48.718Z,92.3
2018-06-27T06:13:09.508Z,92.6
2018-06-27T06:13:30.435Z,92.1
2018-06-27T06:13:51.196Z,92.3
2018-06-27T06:14:11.969Z,92.1
2018-06-27T06:14:32.735Z,92.6
2018-06-27T06:14:54.568Z,92.5
2018-06-27T06:15:15.276Z,92.9
2018-06-27T06:15:35.901Z,92.8
2018-06-27T06:15:56.789Z,92.6
2018-06-27T06:16:17.900Z,91.8
2018-06-27T06:16:38.639Z,91.2
2018-06-27T06:16:59.288Z,91.3
2018-06-27T06:17:19.959Z,91.7
2018-06-27T06:17:40.959Z,91.5
2018-06-27T06:18:01.707Z,91.6
2018-06-27T06:18:22.648Z,91.5
2018-06-27T06:18:43.670Z,90.7
2018-06-27T06:19:04.713Z,90.7
2018-06-27T06:19:25.671Z,90.8
2018-06-27T06:19:46.753Z,90.8
2018-06-27T06:20:07.407Z,91.2
2018-06-27T06:20:28.284Z,91.4
2018-06-27T06:20:49.150Z,91.1
2018-06-27T06:21:09.926Z,90.5
2018-06-27T06:21:30.922Z,90.5
2018-06-27T06:21:52.011Z,90.3
2018-06-27T06:22:13.188Z,90.2
2018-06-27T06:22:33.989Z,89.8
2018-06-27T06:22:54.623Z,89.9
2018-06-27T06:23:15.723Z,89.9
2018-06-27T06:23:36.756Z,89.9
2018-06-27T06:23:57.595Z,89.7
2018-06-27T06:24:18.235Z,90.5
2018-06-27T06:24:39.170Z,90.5
2018-06-27T06:25:00.077Z,90.3
2018-06-27T06:25:21.333Z,90.5
2018-06-27T06:25:42.525Z,89.8
2018-06-27T06:26:03.497Z,90.4
2018-06-27T06:26:24.342Z,90.3
2018-06-27T06:26:45.951Z,90.3
2018-06-27T06:27:06.786Z,90.1
2018-06-27T06:27:27.555Z,90.3
2018-06-27T06:27:48.436Z,90.3
2018-06-27T06:28:09.297Z,90.5
2018-06-27T06:28:30.076Z,91.2
2018-06-27T06:28:50.823Z,89.8
2018-06-27T06:29:11.612Z,89.8
2018-06-27T06:29:32.155Z,90.8
2018-06-27T06:29:52.556Z,90.6
2018-06-27T06:30:13.211Z,90.7
2018-06-27T06:30:34.204Z,90.8
2018-06-27T06:30:54.834Z,90.8
2018-06-27T06:31:15.707Z,89.5
2018-06-27T06:31:36.333Z,88.9
2018-06-27T06:31:57.014Z,88.9
2018-06-27T06:32:18.209Z,89.2
2018-06-27T06:32:39.349Z,89.3
2018-06-27T06:33:00.218Z,88.3
2018-06-27T06:33:21.195Z,88.1
2018-06-27T06:33:41.961Z,88.5
2018-06-27T06:34:02.762Z,88.8
2018-06-27T06:34:23.534Z,88.5
2018-06-27T06:34:44.177Z,88.4
2018-06-27T06:35:05.182Z,88.1
2018-06-27T06:35:25.775Z,88.1
2018-06-27T06:35:46.164Z,87.8
2018-06-27T06:36:06.792Z,88.3
2018-06-27T06:36:27.361Z,89.2
2018-06-27T06:36:48.156Z,90.2
2018-06-27T06:37:09.033Z,90
2018-06-27T06:37:29.880Z,89.7
2018-06-27T06:37:50.825Z,88.9
2018-06-27T06:38:11.684Z,89.3
2018-06-27T06:38:32.313Z,89.1
2018-06-27T06:38:52.916Z,89.4
2018-06-27T06:39:13.533Z,89.1
2018-06-27T06:39:34.215Z,88.9
2018-06-27T06:39:55.158Z,87.2
2018-06-27T06:40:15.770Z,86.3
2018-06-27T06:40:36.207Z,85.6
2018-06-27T06:40:56.818Z,86.6
2018-06-27T06:41:17.287Z,86.8
2018-06-27T06:41:37.931Z,86.8
2018-06-27T06:41:58.825Z,86.5
2018-06-27T06:42:19.226Z,87.2
2018-06-27T06:42:40.039Z,87.1
2018-06-27T06:43:00.530Z,87.2
2018-06-27T06:43:22.097Z,87.3
2018-06-27T06:43:42.700Z,87
2018-06-27T06:44:03.612Z,86.2
2018-06-27T06:44:24.179Z,86.6
2018-06-27T06:44:44.767Z,85.9
2018-06-27T06:45:05.247Z,85.7
2018-06-27T06:45:25.734Z,85.6
2018-06-27T06:45:46.539Z,86.1
2018-06-27T06:46:07.138Z,86.1
2018-06-27T06:46:28.014Z,85.4
2018-06-27T06:46:48.331Z,85.5
2018-06-27T06:47:09.113Z,85.8
2018-06-27T06:47:29.580Z,84.8
2018-06-27T06:47:50.104Z,85.5
2018-06-27T06:48:10.697Z,85.5
2018-06-27T06:48:31.684Z,85.4
2018-06-27T06:48:52.190Z,85.8
2018-06-27T06:49:12.843Z,85.6
2018-06-27T06:49:33.386Z,85.9
2018-06-27T06:49:54.328Z,85.6
2018-06-27T06:50:14.879Z,85.2
2018-06-27T06:50:35.378Z,85.4
2018-06-27T06:50:55.985Z,85
2018-06-27T06:51:16.565Z,85.2
2018-06-27T06:51:37.400Z,84.6
2018-06-27T06:51:58.174Z,84.6
2018-06-27T06:52:18.965Z,84.4
2018-06-27T06:52:40.535Z,84.2
2018-06-27T06:53:01.117Z,83.5
2018-06-27T06:53:21.748Z,83.6
2018-06-27T06:53:42.413Z,84
2018-06-27T06:54:03.632Z,84.1
2018-06-27T06:54:24.759Z,83.6
2018-06-27T06:54:45.272Z,83.3
2018-06-27T06:55:05.733Z,83.5
2018-06-27T06:55:26.358Z,83.7
2018-06-27T06:55:48.398Z,83.4
2018-06-27T06:56:09.037Z,83.7
2018-06-27T06:56:29.546Z,83.7
2018-06-27T06:56:50.170Z,83.1
2018-06-27T06:57:11.019Z,83.4
2018-06-27T06:57:31.630Z,83.3
2018-06-27T06:57:52.316Z,83
2018-06-27T06:58:12.978Z,83.3
2018-06-27T06:58:35.940Z,83.3
2018-06-27T06:58:56.661Z,83
2018-06-27T06:59:17.251Z,82.6
2018-06-27T06:59:37.822Z,82.9
2018-06-27T06:59:58.594Z,82.2
2018-06-27T07:00:19.358Z,82.3
2018-06-27T07:00:40.338Z,81.7
2018-06-27T07:01:01.257Z,82
2018-06-27T07:01:22.032Z,81.3
2018-06-27T07:01:42.816Z,81.5
2018-06-27T07:02:03.602Z,81.8
2018-06-27T07:02:24.441Z,81.6
2018-06-27T07:02:45.043Z,81.9
2018-06-27T07:03:05.739Z,81.6
2018-06-27T07:03:26.221Z,80.6
2018-06-27T07:03:46.830Z,79.5
2018-06-27T07:04:07.392Z,78.9
2018-06-27T07:04:28.029Z,79.3
2018-06-27T07:04:48.556Z,80.7
2018-06-27T07:05:09.308Z,80.9
2018-06-27T07:05:29.788Z,80
2018-06-27T07:05:50.398Z,78.9
2018-06-27T07:06:10.874Z,77.8
2018-06-27T07:06:31.567Z,77.7
2018-06-27T07:06:52.214Z,78.3
2018-06-27T07:07:13.326Z,80
2018-06-27T07:07:33.833Z,80.2
2018-06-27T07:07:54.106Z,79.8
2018-06-27T07:08:14.717Z,80.2
2018-06-27T07:08:35.714Z,80.1
2018-06-27T07:08:56.231Z,80
2018-06-27T07:09:17.056Z,78.7
2018-06-27T07:09:37.956Z,78.9
2018-06-27T07:09:58.650Z,80
2018-06-27T07:10:19.413Z,78.8
2018-06-27T07:10:40.253Z,78.3
2018-06-27T07:11:01.537Z,78
2018-06-27T07:11:22.470Z,78.1
2018-06-27T07:11:43.068Z,78.1
2018-06-27T07:12:03.750Z,78.2
2018-06-27T07:12:24.575Z,78.1
2018-06-27T07:12:45.230Z,77.3
2018-06-27T07:13:05.672Z,77.3
2018-06-27T07:13:26.109Z,77.4
2018-06-27T07:13:46.589Z,77.5
2018-06-27T07:14:07.359Z,76.9
2018-06-27T07:14:27.749Z,77.4
2018-06-27T07:14:48.400Z,77
2018-06-27T07:15:08.943Z,77.7
2018-06-27T07:15:30.534Z,77.7
2018-06-27T07:15:51.095Z,78.9
2018-06-27T07:16:11.966Z,78.3
2018-06-27T07:16:32.764Z,78.1
2018-06-27T07:16:53.242Z,77.1
2018-06-27T07:17:13.969Z,76.7
2018-06-27T07:17:34.553Z,76.6
2018-06-27T07:17:55.178Z,76.6
2018-06-27T07:18:15.612Z,77.7
2018-06-27T07:18:36.121Z,78.2
2018-06-27T07:18:56.670Z,78.6
2018-06-27T07:19:17.380Z,80
2018-06-27T07:19:37.802Z,80
2018-06-27T07:19:58.234Z,79
2018-06-27T07:20:19.476Z,78.5
2018-06-27T07:20:39.979Z,78.1
2018-06-27T07:21:00.705Z,79.2
2018-06-27T07:21:21.374Z,78.3
2018-06-27T07:21:41.964Z,78.2
2018-06-27T07:22:02.415Z,78.4
2018-06-27T07:22:22.926Z,79.2
2018-06-27T07:22:43.880Z,78.9
2018-06-27T07:23:04.663Z,78.7
2018-06-27T07:23:25.296Z,79
2018-06-27T07:23:46.056Z,79.7
2018-06-27T07:24:06.970Z,79.2
2018-06-27T07:24:27.865Z,77.4
2018-06-27T07:24:48.473Z,78.5
2018-06-27T07:25:09.007Z,79
2018-06-27T07:25:30.109Z,79
2018-06-27T07:25:50.781Z,78.5
2018-06-27T07:26:11.507Z,78.3
2018-06-27T07:26:32.323Z,77.7
2018-06-27T07:26:53.102Z,77.5
2018-06-27T07:27:13.715Z,77.5
2018-06-27T07:27:34.392Z,77.6
2018-06-27T07:27:54.966Z,77.6
2018-06-27T07:28:15.532Z,77.2
2018-06-27T07:28:36.549Z,77.4
2018-06-27T07:28:57.275Z,77.7
2018-06-27T07:29:17.761Z,78.1
2018-06-27T07:29:38.183Z,77.1
2018-06-27T07:29:58.805Z,77.3
2018-06-27T07:30:19.165Z,77.8
2018-06-27T07:30:39.951Z,78
2018-06-27T07:31:00.823Z,77.6
2018-06-27T07:31:22.472Z,76.2
2018-06-27T07:31:43.151Z,75.8
2018-06-27T07:32:03.936Z,76.1
2018-06-27T07:32:24.829Z,76.5
2018-06-27T07:32:45.689Z,76.3
2018-06-27T07:33:06.350Z,76.5
2018-06-27T07:33:27.025Z,76.1
2018-06-27T07:33:47.655Z,75.7
2018-06-27T07:34:08.654Z,76.1
2018-06-27T07:34:29.482Z,75.8
2018-06-27T07:34:50.173Z,75.8
2018-06-27T07:35:10.680Z,76
2018-06-27T07:35:31.392Z,76.3
2018-06-27T07:35:52.265Z,75.6
2018-06-27T07:36:13.134Z,75.6
2018-06-27T07:36:34.023Z,75.5
2018-06-27T07:36:56.133Z,76.4
2018-06-27T07:37:16.731Z,76.1
2018-06-27T07:37:37.637Z,76.7
2018-06-27T07:37:58.310Z,76.5
2018-06-27T07:38:19.801Z,77
2018-06-27T07:38:40.434Z,76.5
2018-06-27T07:39:01.429Z,76.3
2018-06-27T07:39:22.480Z,76.6
2018-06-27T07:39:43.237Z,76.5
2018-06-27T07:40:04.055Z,76.1
2018-06-27T07:40:24.881Z,76.6
2018-06-27T07:40:45.844Z,75.9
2018-06-27T07:41:06.882Z,76.1
2018-06-27T07:41:27.510Z,76.3
2018-06-27T07:41:48.041Z,76.4
2018-06-27T07:42:08.483Z,76.6
2018-06-27T07:42:29.181Z,76.2
2018-06-27T07:42:51.192Z,76.6
2018-06-27T07:43:11.935Z,76.2
2018-06-27T07:43:32.728Z,75.9
2018-06-27T07:43:53.208Z,76.3
2018-06-27T07:44:13.986Z,76.2
2018-06-27T07:44:35.072Z,76.6
2018-06-27T07:44:55.798Z,76.9
2018-06-27T07:45:16.936Z,77.1
2018-06-27T07:45:37.615Z,77.3
2018-06-27T07:45:58.875Z,78.3
2018-06-27T07:46:19.683Z,78.8
2018-06-27T07:46:41.062Z,77.5
2018-06-27T07:47:01.934Z,77.5
2018-06-27T07:47:22.887Z,78.2
2018-06-27T07:47:43.302Z,77
2018-06-27T07:48:04.739Z,76.4
2018-06-27T07:48:25.193Z,76.8
2018-06-27T07:48:45.932Z,76.7
2018-06-27T07:49:06.819Z,76.6
2018-06-27T07:49:27.499Z,76.4
2018-06-27T07:49:48.277Z,76.3
2018-06-27T07:50:08.942Z,76.4
2018-06-27T07:50:29.771Z,76.4
2018-06-27T07:50:50.220Z,76.3
2018-06-27T07:51:11.035Z,75.7
2018-06-27T07:51:31.640Z,75.9
2018-06-27T07:51:52.189Z,75.1
2018-06-27T07:52:13.001Z,75.2
2018-06-27T07:52:33.881Z,75.6
2018-06-27T07:52:54.731Z,76.1
2018-06-27T07:53:15.301Z,76.3
2018-06-27T07:53:35.694Z,76.2
2018-06-27T07:53:56.296Z,76.4
2018-06-27T07:54:16.820Z,76.8
2018-06-27T07:54:37.316Z,77.2
2018-06-27T07:54:58.164Z,76.8
2018-06-27T07:55:19.474Z,76.8
2018-06-27T07:55:40.363Z,76.6
2018-06-27T07:56:01.509Z,76.5
2018-06-27T07:56:22.321Z,76.3
2018-06-27T07:56:43.279Z,75.7
2018-06-27T07:57:03.906Z,75.5
2018-06-27T07:57:25.091Z,74.9
2018-06-27T07:57:45.908Z,75
2018-06-27T07:58:06.631Z,75.9
2018-06-27T07:58:27.378Z,75.9
2018-06-27T07:58:48.229Z,75.3
2018-06-27T07:59:08.798Z,75.4
2018-06-27T07:59:29.318Z,74.8
2018-06-27T07:59:50.373Z,74.1
2018-06-27T08:00:11.157Z,74.6
2018-06-27T08:00:31.820Z,76.1
2018-06-27T08:00:52.540Z,75.8
2018-06-27T08:01:13.314Z,74.8
2018-06-27T08:01:34.066Z,74.3
2018-06-27T08:01:54.906Z,73.6
2018-06-27T08:02:15.548Z,74.1
2018-06-27T08:02:36.138Z,74
2018-06-27T08:02:56.876Z,73.2
2018-06-27T08:03:17.544Z,71.9
2018-06-27T08:03:38.523Z,71.2
2018-06-27T08:03:59.208Z,72.1
2018-06-27T08:04:19.978Z,72.3
2018-06-27T08:04:40.922Z,72
2018-06-27T08:05:02.114Z,72.3
2018-06-27T08:05:22.848Z,72.4
2018-06-27T08:05:43.848Z,73.5
2018-06-27T08:06:04.840Z,72.3
2018-06-27T08:06:25.252Z,71.7
2018-06-27T08:06:45.772Z,71.3
2018-06-27T08:07:06.535Z,70.7
2018-06-27T08:07:27.465Z,71.5
2018-06-27T08:07:48.080Z,71
2018-06-27T08:08:08.630Z,70.9
2018-06-27T08:08:29.270Z,71.1
2018-06-27T08:08:50.073Z,70.5
2018-06-27T08:09:10.778Z,71.2
2018-06-27T08:09:31.600Z,71.6
2018-06-27T08:09:52.566Z,71
2018-06-27T08:10:13.252Z,71.2
2018-06-27T08:10:34.082Z,70
2018-06-27T08:10:54.776Z,70.3
2018-06-27T08:11:15.433Z,70.5
2018-06-27T08:11:35.755Z,71
2018-06-27T08:11:56.286Z,71.7
2018-06-27T08:12:17.169Z,71.3
2018-06-27T08:12:38.267Z,70.2
2018-06-27T08:12:58.935Z,70.5
2018-06-27T08:13:19.654Z,71
2018-06-27T08:13:40.569Z,70.3
2018-06-27T08:14:01.222Z,70
2018-06-27T08:14:21.759Z,70.1
2018-06-27T08:14:42.350Z,69.9
2018-06-27T08:15:02.985Z,70.1
2018-06-27T08:15:23.617Z,68.9
2018-06-27T08:15:44.201Z,68.9
2018-06-27T08:16:04.540Z,69.1
2018-06-27T08:16:25.593Z,69.3
2018-06-27T08:16:46.092Z,69.3
2018-06-27T08:17:06.656Z,68.4
2018-06-27T08:17:27.084Z,67.4
2018-06-27T08:17:47.541Z,68.1
2018-06-27T08:18:08.208Z,69.1
2018-06-27T08:18:28.675Z,69.3
2018-06-27T08:18:50.136Z,69.7
2018-06-27T08:19:10.751Z,69.8
2018-06-27T08:19:31.351Z,70.8
2018-06-27T08:19:52.082Z,70.2
2018-06-27T08:20:12.733Z,70.1
2018-06-27T08:20:33.711Z,69.4
2018-06-27T08:20:54.276Z,69.4
2018-06-27T08:21:15.977Z,69.3
2018-06-27T08:21:36.945Z,68.8
2018-06-27T08:21:57.682Z,69.9
2018-06-27T08:22:18.460Z,70.9
2018-06-27T08:22:40.477Z,71
2018-06-27T08:23:01.192Z,71.6
2018-06-27T08:23:22.027Z,71.5
2018-06-27T08:23:42.723Z,70.9
2018-06-27T08:24:03.296Z,72.3
2018-06-27T08:24:23.870Z,72.8
2018-06-27T08:24:44.589Z,72.3
2018-06-27T08:25:05.311Z,72.3
2018-06-27T08:25:26.256Z,72.4
2018-06-27T08:25:46.853Z,72
2018-06-27T08:26:07.507Z,72.1
2018-06-27T08:26:28.229Z,71.5
2018-06-27T08:26:49.577Z,71.1
2018-06-27T08:27:10.199Z,71.1
2018-06-27T08:27:30.875Z,71.2
2018-06-27T08:27:51.500Z,71.4
2018-06-27T08:28:12.359Z,71.5
2018-06-27T08:28:33.047Z,71
2018-06-27T08:28:53.522Z,71.1
2018-06-27T08:29:14.090Z,71.9
2018-06-27T08:29:35.192Z,72.2
2018-06-27T08:29:56.096Z,72.7
2018-06-27T08:30:16.822Z,72.6
2018-06-27T08:30:37.674Z,72.2
2018-06-27T08:30:58.427Z,72.2
2018-06-27T08:31:19.026Z,72.6
2018-06-27T08:31:39.709Z,72.3
2018-06-27T08:32:00.577Z,72.5
2018-06-27T08:32:21.220Z,72.2
2018-06-27T08:32:42.035Z,72.3
2018-06-27T08:33:02.587Z,72.2
2018-06-27T08:33:23.397Z,72.1
2018-06-27T08:33:44.407Z,72.1
2018-06-27T08:34:05.053Z,72.1
2018-06-27T08:34:25.989Z,73.4
2018-06-27T08:34:46.563Z,72.9
2018-06-27T08:35:07.526Z,71.9
2018-06-27T08:35:27.999Z,71.8
2018-06-27T08:35:48.862Z,70.5
2018-06-27T08:36:10.168Z,70
2018-06-27T08:36:30.883Z,70.7
2018-06-27T08:36:52.149Z,70.5
2018-06-27T08:37:12.868Z,70.7
2018-06-27T08:37:33.785Z,70.7
2018-06-27T08:37:54.428Z,70.9
2018-06-27T08:38:15.471Z,70.6
2018-06-27T08:38:36.074Z,71
2018-06-27T08:38:56.858Z,71.7
2018-06-27T08:39:17.460Z,71.7
2018-06-27T08:39:38.196Z,70.3
2018-06-27T08:39:58.840Z,71.9
2018-06-27T08:40:19.463Z,72.3
2018-06-27T08:40:40.137Z,71.5
2018-06-27T08:41:00.764Z,71.2
2018-06-27T08:41:21.398Z,70.6
2018-06-27T08:41:41.957Z,69.8
2018-06-27T08:42:02.675Z,69.8
2018-06-27T08:42:23.286Z,70.2
2018-06-27T08:42:43.943Z,71.2
2018-06-27T08:43:04.488Z,70.7
2018-06-27T08:43:25.286Z,71.6
2018-06-27T08:43:46.325Z,71.1
2018-06-27T08:44:06.761Z,69.4
2018-06-27T08:44:27.485Z,68.5
2018-06-27T08:44:48.693Z,68.8
2018-06-27T08:45:09.047Z,69.3
2018-06-27T08:45:30.419Z,69.3
2018-06-27T08:45:50.876Z,68.8
2018-06-27T08:46:11.695Z,69
2018-06-27T08:46:32.296Z,69.3
2018-06-27T08:46:53.120Z,69.8
2018-06-27T08:47:14.481Z,69.4
2018-06-27T08:47:35.084Z,69.2
2018-06-27T08:47:55.682Z,70.2
2018-06-27T08:48:16.168Z,69.3
2018-06-27T08:48:36.584Z,69.3
2018-06-27T08:48:57.294Z,69.1
2018-06-27T08:49:18.200Z,69.8
2018-06-27T08:49:39.060Z,70.1
2018-06-27T08:49:59.685Z,70.5
2018-06-27T08:50:20.664Z,70.7
2018-06-27T08:50:41.498Z,71.3
2018-06-27T08:51:02.521Z,71.5
2018-06-27T08:51:24.126Z,70.6
2018-06-27T08:51:44.753Z,69.9
2018-06-27T08:52:05.398Z,69.9
2018-06-27T08:52:26.719Z,71.5
2018-06-27T08:52:47.450Z,71.8
2018-06-27T08:53:08.255Z,71.7
2018-06-27T08:53:29.006Z,71.4
2018-06-27T08:53:49.708Z,72
2018-06-27T08:54:10.325Z,71.8
2018-06-27T08:54:31.189Z,70.9
2018-06-27T08:54:52.561Z,70.3
2018-06-27T08:55:13.106Z,70.2
2018-06-27T08:55:34.021Z,70.8
2018-06-27T08:55:54.864Z,70.8
2018-06-27T08:56:15.421Z,70.6
2018-06-27T08:56:36.184Z,71.1
2018-06-27T08:56:57.017Z,69.4
2018-06-27T08:57:17.674Z,68.4
2018-06-27T08:57:38.473Z,68.4
2018-06-27T08:57:59.046Z,67.9
2018-06-27T08:58:20.177Z,68.4
2018-06-27T08:58:40.553Z,67.6
2018-06-27T08:59:01.201Z,68.1
2018-06-27T08:59:21.845Z,67.1
2018-06-27T08:59:42.490Z,66.9
2018-06-27T09:00:03.012Z,67.4
2018-06-27T09:00:23.851Z,68
2018-06-27T09:00:44.748Z,68.5
2018-06-27T09:01:05.376Z,68.4
2018-06-27T09:01:26.109Z,66.9
2018-06-27T09:01:46.698Z,66.4
2018-06-27T09:02:07.331Z,66.3
2018-06-27T09:02:28.144Z,66.7
2018-06-27T09:02:49.196Z,66.9
2018-06-27T09:03:10.083Z,67.7
2018-06-27T09:03:31.513Z,67.6
2018-06-27T09:03:52.105Z,67
2018-06-27T09:04:12.636Z,66
2018-06-27T09:04:32.933Z,66
2018-06-27T09:04:53.472Z,67.6
2018-06-27T09:05:14.064Z,67.7
2018-06-27T09:05:34.471Z,68
2018-06-27T09:05:55.084Z,67.7
2018-06-27T09:06:15.531Z,67
2018-06-27T09:06:36.163Z,67.8
2018-06-27T09:06:56.726Z,67.8
2018-06-27T09:07:18.050Z,68.3
2018-06-27T09:07:38.871Z,68.5
2018-06-27T09:08:00.040Z,68.6
2018-06-27T09:08:20.458Z,67.7
2018-06-27T09:08:41.082Z,67.1
2018-06-27T09:09:01.778Z,67.1
2018-06-27T09:09:22.469Z,66.3
2018-06-27T09:09:43.379Z,66.4
2018-06-27T09:10:04.008Z,65.8
2018-06-27T09:10:24.523Z,64.2
2018-06-27T09:10:44.958Z,63.3
2018-06-27T09:11:06.055Z,63.5
2018-06-27T09:11:26.485Z,64.4
2018-06-27T09:11:47.154Z,65
2018-06-27T09:12:07.545Z,65.3
2018-06-27T09:12:27.882Z,65.3
2018-06-27T09:12:48.417Z,65.9
2018-06-27T09:13:09.244Z,65
2018-06-27T09:13:29.641Z,65.9
2018-06-27T09:13:49.913Z,66.4
2018-06-27T09:14:10.362Z,66.4
2018-06-27T09:14:30.937Z,66.5
2018-06-27T09:14:51.363Z,67.1
2018-06-27T09:15:12.604Z,65.9
2018-06-27T09:15:33.269Z,65.9
2018-06-27T09:15:53.931Z,66
2018-06-27T09:16:14.492Z,66.4
2018-06-27T09:16:35.173Z,66.4
2018-06-27T09:16:55.704Z,67
2018-06-27T09:17:16.158Z,66.6
2018-06-27T09:17:36.626Z,66.9
2018-06-27T09:17:57.249Z,67.3
2018-06-27T09:18:17.696Z,67.6
2018-06-27T09:18:38.365Z,68.2
2018-06-27T09:18:58.994Z,68
2018-06-27T09:19:19.376Z,67.1
2018-06-27T09:19:39.952Z,66
2018-06-27T09:20:00.654Z,65.5
2018-06-27T09:20:23.036Z,65.9
2018-06-27T09:20:43.560Z,66.2
2018-06-27T09:21:04.327Z,65.2
2018-06-27T09:21:25.108Z,65.4
2018-06-27T09:21:46.006Z,64.9
2018-06-27T09:22:06.713Z,64.8
2018-06-27T09:22:27.503Z,64.7
2018-06-27T09:22:47.930Z,64.8
2018-06-27T09:23:08.307Z,64.4
2018-06-27T09:23:28.920Z,64.2
2018-06-27T09:23:49.385Z,64.6
2018-06-27T09:24:09.812Z,64.7
2018-06-27T09:24:30.205Z,64.9
2018-06-27T09:24:50.659Z,65.3
2018-06-27T09:25:12.155Z,64.7
2018-06-27T09:25:32.522Z,64.7
2018-06-27T09:25:52.980Z,65.3
2018-06-27T09:26:13.972Z,65.3
2018-06-27T09:26:34.701Z,65.3
2018-06-27T09:26:55.315Z,64.7
2018-06-27T09:27:15.812Z,65
2018-06-27T09:27:36.078Z,65.3
2018-06-27T09:27:56.499Z,65.2
2018-06-27T09:28:17.172Z,66.1
2018-06-27T09:28:37.878Z,65.9
2018-06-27T09:28:58.316Z,65.8
2018-06-27T09:29:19.012Z,65.1
2018-06-27T09:29:40.006Z,64.9
2018-06-27T09:30:01.133Z,64.3
2018-06-27T09:30:21.867Z,65.6
2018-06-27T09:30:42.504Z,66.4
2018-06-27T09:31:03.011Z,65.8
2018-06-27T09:31:23.450Z,66.3
2018-06-27T09:31:44.524Z,67
2018-06-27T09:32:05.060Z,67.6
2018-06-27T09:32:25.631Z,68.3
2018-06-27T09:32:45.954Z,68.5
2018-06-27T09:33:06.387Z,67.6
2018-06-27T09:33:27.682Z,66.5
2018-06-27T09:33:48.382Z,66.7
2018-06-27T09:34:08.889Z,67.9
2018-06-27T09:34:29.398Z,67.3
2018-06-27T09:34:49.986Z,67.1
2018-06-27T09:35:11.203Z,65.9
2018-06-27T09:35:32.567Z,65.4
2018-06-27T09:35:53.266Z,64.8
2018-06-27T09:36:13.943Z,65.9
2018-06-27T09:36:34.908Z,66.7
2018-06-27T09:36:55.679Z,66.5
2018-06-27T09:37:16.420Z,65.9
2018-06-27T09:37:37.152Z,65.9
2018-06-27T09:37:57.804Z,65.2
2018-06-27T09:38:18.793Z,64.9
2018-06-27T09:38:39.179Z,64.4
2018-06-27T09:38:59.810Z,64.7
2018-06-27T09:39:20.285Z,65.1
2018-06-27T09:39:40.960Z,63.9
2018-06-27T09:40:01.575Z,64.1
2018-06-27T09:40:22.269Z,64.6
2018-06-27T09:40:42.645Z,64.2
2018-06-27T09:41:03.080Z,64.3
2018-06-27T09:41:23.667Z,65.4
2018-06-27T09:41:44.147Z,64.7
2018-06-27T09:42:04.737Z,64.3
2018-06-27T09:42:25.642Z,64.7
2018-06-27T09:42:46.270Z,64.5
2018-06-27T09:43:06.859Z,64.6
2018-06-27T09:43:27.703Z,64.1
2018-06-27T09:43:48.237Z,64.5
2018-06-27T09:44:08.700Z,64.1
2018-06-27T09:44:29.476Z,63.8
2018-06-27T09:44:49.916Z,63.1
2018-06-27T09:45:10.580Z,62.6
2018-06-27T09:45:31.035Z,62.8
2018-06-27T09:45:51.980Z,61.8
2018-06-27T09:46:12.670Z,62.2
2018-06-27T09:46:34.198Z,62.5
2018-06-27T09:46:54.979Z,62.9
2018-06-27T09:47:15.583Z,62.5
2018-06-27T09:47:36.349Z,63.4
2018-06-27T09:47:56.971Z,63.1
2018-06-27T09:48:17.717Z,62.3
2018-06-27T09:48:38.379Z,61.8
2018-06-27T09:48:58.944Z,62
2018-06-27T09:49:19.751Z,61.9
2018-06-27T09:49:40.236Z,62.2
2018-06-27T09:50:00.895Z,62.3
2018-06-27T09:50:21.720Z,62.3
2018-06-27T09:50:42.334Z,62.1
2018-06-27T09:51:02.811Z,62
2018-06-27T09:51:23.642Z,61.8
2018-06-27T09:51:44.135Z,61.9
2018-06-27T09:52:05.804Z,62.3
2018-06-27T09:52:26.728Z,63.1
2018-06-27T09:52:47.394Z,63.5
2018-06-27T09:53:07.938Z,64.9
2018-06-27T09:53:28.488Z,66.3
2018-06-27T09:53:49.192Z,65.7
2018-06-27T09:54:10.131Z,65.1
2018-06-27T09:54:31.207Z,64.7
2018-06-27T09:54:52.638Z,63.4
2018-06-27T09:55:13.292Z,64
2018-06-27T09:55:33.782Z,63.4
2018-06-27T09:55:54.378Z,63.3
2018-06-27T09:56:14.786Z,63.6
2018-06-27T09:56:35.386Z,63.6
2018-06-27T09:56:55.987Z,63.9
2018-06-27T09:57:16.672Z,64.3
2018-06-27T09:57:37.635Z,63.4
2018-06-27T09:57:58.289Z,64.1
2018-06-27T09:58:18.827Z,64.1
2018-06-27T09:58:39.248Z,64.5
2018-06-27T09:58:59.766Z,63.7
2018-06-27T09:59:20.271Z,64.2
2018-06-27T09:59:40.649Z,62.9
2018-06-27T10:00:01.149Z,63.1
2018-06-27T10:00:21.592Z,63.1
2018-06-27T10:00:42.099Z,63.1
2018-06-27T10:01:02.520Z,63.8
2018-06-27T10:01:22.994Z,62.7
2018-06-27T10:01:43.426Z,62.9
2018-06-27T10:02:04.187Z,62.6
2018-06-27T10:02:24.850Z,62.3
2018-06-27T10:02:45.411Z,62.8
2018-06-27T10:03:06.187Z,63.2
2018-06-27T10:03:26.703Z,64.1
2018-06-27T10:03:47.372Z,63.4
2018-06-27T10:04:08.133Z,64.1
2018-06-27T10:04:28.966Z,63.8
2018-06-27T10:04:49.855Z,62.8
2018-06-27T10:05:10.943Z,62.6
2018-06-27T10:05:31.642Z,63
2018-06-27T10:05:52.225Z,63.6
2018-06-27T10:06:12.806Z,63.3
2018-06-27T10:06:34.269Z,61.7
2018-06-27T10:06:55.243Z,62
2018-06-27T10:07:16.459Z,61.8
2018-06-27T10:07:37.084Z,62.5
2018-06-27T10:07:57.699Z,62.4
2018-06-27T10:08:18.192Z,61.9
2018-06-27T10:08:39.085Z,62.5
2018-06-27T10:08:59.744Z,62.3
2018-06-27T10:09:20.524Z,62.2
2018-06-27T10:09:41.095Z,62.3
2018-06-27T10:10:01.531Z,62.3
2018-06-27T10:10:22.506Z,62
2018-06-27T10:10:43.690Z,62.6
2018-06-27T10:11:04.133Z,63
2018-06-27T10:11:24.773Z,62.8
2018-06-27T10:11:45.335Z,61
2018-06-27T10:12:06.143Z,62.1
2018-06-27T10:12:26.876Z,62
2018-06-27T10:12:47.501Z,62.2
2018-06-27T10:13:07.999Z,62.1
2018-06-27T10:13:28.477Z,62.4
2018-06-27T10:13:48.961Z,62
2018-06-27T10:14:09.902Z,61.9
2018-06-27T10:14:30.967Z,61.3
2018-06-27T10:14:51.745Z,61.6
2018-06-27T10:15:12.593Z,61.8
2018-06-27T10:15:33.243Z,61.9
2018-06-27T10:15:53.993Z,62.4
2018-06-27T10:16:14.976Z,61.5
2018-06-27T10:16:35.868Z,60.5
2018-06-27T10:16:57.637Z,60.7
2018-06-27T10:17:18.426Z,60.4
2018-06-27T10:17:39.062Z,60.3
2018-06-27T10:17:59.709Z,60.2
2018-06-27T10:18:20.506Z,60.6
2018-06-27T10:18:41.313Z,60.6
2018-06-27T10:19:01.750Z,59.8
2018-06-27T10:19:22.725Z,59.7
2018-06-27T10:19:43.419Z,61
2018-06-27T10:20:04.646Z,60.8
2018-06-27T10:20:24.895Z,60.1
2018-06-27T10:20:45.590Z,60.7
2018-06-27T10:21:06.329Z,60.1
2018-06-27T10:21:27.212Z,60.8
2018-06-27T10:21:47.843Z,62.2
2018-06-27T10:22:08.595Z,60.5
2018-06-27T10:22:29.286Z,60.1
2018-06-27T10:22:49.539Z,60.5
2018-06-27T10:23:10.397Z,60.1
2018-06-27T10:23:31.059Z,60.1
2018-06-27T10:23:52.014Z,59.7
2018-06-27T10:24:12.987Z,59.8
2018-06-27T10:24:33.592Z,59.4
2018-06-27T10:24:54.661Z,60
2018-06-27T10:25:15.254Z,60.5
2018-06-27T10:25:35.960Z,60.3
2018-06-27T10:25:56.632Z,60.3
2018-06-27T10:26:17.240Z,59.4
2018-06-27T10:26:37.909Z,59.7
2018-06-27T10:26:58.389Z,59
2018-06-27T10:27:19.054Z,58.6
2018-06-27T10:27:39.685Z,58.6
2018-06-27T10:28:00.201Z,57.5
2018-06-27T10:28:20.753Z,57.9
2018-06-27T10:28:41.587Z,56.9